CW1334 Weather Reports


Display with metric or nautical units.
time (UTC)temp
F
wind
direction
speed
MPH
gust
MPH
rain 1hr
in
rain 24hr
in
rain mn
in
humidity
%
barometer
mb
20180919010056 52 1 7.0 12.0 0.00 0.00 0.00 70 1016.9
20180919005156 53 1 8.0 12.0 0.00 0.00 0.00 69 1016.8
20180919003356 53 1 7.0 12.0 0.00 0.00 0.00 69 1016.5
20180919000656 54 1 6.0 10.0 0.00 0.00 0.00 68 1016.3
20180918235756 53 1 7.0 13.0 0.00 0.00 0.00 68 1016.2
20180918234856 53 1 7.0 13.0 0.00 0.00 0.00 68 1016.0
20180918233056 54 1 7.0 13.0 0.00 0.00 0.00 67 1015.9
20180918232156 54 1 8.0 12.0 0.00 0.00 0.00 67 1016.0
20180918231256 54 1 9.0 14.0 0.00 0.00 0.00 66 1016.0
20180918230356 54 1 9.0 14.0 0.00 0.00 0.00 66 1015.8
20180918225456 54 1 10.0 15.0 0.00 0.00 0.00 66 1015.8
20180918224557 54 1 9.0 14.0 0.00 0.00 0.00 66 1015.6
20180918223656 54 1 10.0 16.0 0.00 0.00 0.00 65 1015.5
20180918222756 54 1 9.0 15.0 0.00 0.00 0.00 64 1015.5
20180918221856 55 1 9.0 14.0 0.00 0.00 0.00 64 1015.5
20180918220956 55 1 10.0 17.0 0.00 0.00 0.00 63 1015.4
20180918220056 55 1 9.0 14.0 0.00 0.00 0.00 63 1015.4
20180918214256 55 1 9.0 17.0 0.00 0.00 0.00 64 1015.3
20180918213356 55 1 9.0 13.0 0.00 0.00 0.00 63 1015.4
20180918212456 55 1 10.0 17.0 0.00 0.00 0.00 64 1015.2
20180918211556 55 1 10.0 19.0 0.00 0.00 0.00 63 1015.0
20180918204856 55 1 8.0 13.0 0.00 0.00 0.00 64 1015.1
20180918203956 55 1 8.0 13.0 0.00 0.00 0.00 64 1015.0
20180918203056 55 1 8.0 16.0 0.00 0.00 0.00 63 1015.0
20180918201256 55 1 8.0 14.0 0.00 0.00 0.00 64 1015.0
20180918194556 54 1 6.0 11.0 0.00 0.00 0.00 66 1015.4
20180918193656 54 1 7.0 14.0 0.00 0.00 0.00 66 1015.3
20180918192756 54 1 8.0 13.0 0.00 0.00 0.00 66 1015.2
20180918191856 54 1 8.0 14.0 0.00 0.00 0.00 66 1015.2
20180918185156 54 1 7.0 15.0 0.00 0.00 0.00 68 1015.2
20180918184256 53 1 7.0 13.0 0.00 0.00 0.00 69 1015.4
20180918182456 52 1 8.0 13.0 0.00 0.00 0.00 70 1015.5
20180918181556 52 1 8.0 13.0 0.00 0.00 0.00 72 1015.5
20180918175755 50 1 9.0 15.0 0.00 0.00 0.00 76 1015.6
20180918174856 50 1 9.0 16.0 0.00 0.00 0.00 78 1015.8
20180918173955 49 1 10.0 16.0 0.00 0.00 0.00 79 1015.9
20180918173332 49 1 9.0 15.0 0.00 0.00 0.00 81 1015.9
20180918172156 48 1 11.0 17.0 0.00 0.00 0.00 82 1016.0
20180918163655 47 1 9.0 16.0 0.00 0.00 0.00 85 1016.0
20180918160956 46 1 8.0 16.0 0.00 0.00 0.00 88 1016.0
20180918155155 46 1 8.0 15.0 0.00 0.00 0.00 92 1016.1
20180918151555 44 57 9.0 13.0 0.00 0.00 0.00 94 1016.3
20180918150656 43 57 9.0 12.0 0.00 0.00 0.00 94 1016.4
20180918144856 43 60 8.0 14.0 0.00 0.00 0.00 94 1016.3
20180918143956 42 58 8.0 14.0 0.00 0.00 0.00 94 1016.3
20180918142156 42 17 6.0 10.0 0.00 0.00 0.00 94 1016.2
20180918141255 42 49 5.0 10.0 0.00 0.00 0.00 94 1016.1
20180918135455 42 54 6.0 11.0 0.00 0.00 0.00 94 1016.0
20180918134555 42 29 3.0 10.0 0.00 0.00 0.00 94 1016.0
20180918133655 41 54 5.0 10.0 0.00 0.00 0.00 94 1016.0
20180918131855 41 39 4.0 8.0 0.00 0.00 0.00 93 1016.0
20180918130955 40 17 4.0 9.0 0.00 0.00 0.00 93 1016.0
20180918125155 40 56 6.0 10.0 0.00 0.00 0.00 92 1016.0
20180918124255 40 56 7.0 10.0 0.00 0.00 0.00 92 1016.0
20180918123355 40 54 7.0 10.0 0.00 0.00 0.00 91 1015.9
20180918122455 40 53 5.0 11.0 0.00 0.00 0.00 91 1015.8
20180918121555 40 25 4.0 8.0 0.00 0.00 0.00 90 1015.9
20180918120655 40 38 4.0 8.0 0.00 0.00 0.00 89 1016.0
20180918115755 41 31 5.0 8.0 0.00 0.00 0.00 88 1016.0
20180918113955 41 56 3.0 7.0 0.00 0.00 0.00 87 1016.0
20180918113055 41 52 3.0 6.0 0.00 0.00 0.00 87 1016.0
20180918112155 42 51 3.0 5.0 0.00 0.00 0.00 87 1016.1
20180918105455 42 58 5.0 8.0 0.00 0.00 0.00 86 1016.0
20180918103655 42 49 4.0 8.0 0.00 0.00 0.00 86 1016.2
20180918101856 42 47 4.0 7.0 0.00 0.00 0.00 87 1016.4
20180918100955 41 44 3.0 6.0 0.00 0.00 0.00 86 1016.4
20180918100055 41 57 2.0 4.0 0.00 0.00 0.00 86 1016.3
20180918094255 41 45 3.0 6.0 0.00 0.00 0.00 85 1016.4
20180918093354 41 40 3.0 4.0 0.00 0.00 0.00 83 1016.4
20180918091555 42 60 3.0 5.0 0.00 0.00 0.00 82 1016.5
20180918090655 43 65 4.0 8.0 0.00 0.00 0.00 82 1016.5
20180918084855 43 56 3.0 5.0 0.00 0.00 0.00 80 1016.6
20180918083955 44 68 3.0 7.0 0.00 0.00 0.00 78 1016.6
20180918083054 44 78 5.0 10.0 0.00 0.00 0.00 78 1016.5
20180918082155 45 79 5.0 10.0 0.00 0.00 0.00 77 1016.5
20180918080354 46 65 4.0 7.0 0.00 0.00 0.00 76 1016.9
20180918074554 46 75 4.0 8.0 0.00 0.00 0.00 76 1016.9
20180918072754 46 85 7.0 12.0 0.00 0.00 0.00 77 1016.6
20180918064255 46 65 4.0 9.0 0.00 0.00 0.00 77 1017.2
20180918061554 47 82 6.0 11.0 0.00 0.00 0.00 75 1017.1
20180918055754 47 85 5.0 11.0 0.00 0.00 0.00 74 1017.2
20180918054854 47 90 6.0 10.0 0.00 0.00 0.00 74 1017.2
20180918051254 48 84 6.0 11.0 0.00 0.00 0.00 71 1017.2
20180918050354 48 83 7.0 12.0 0.00 0.00 0.00 70 1017.2
20180918045454 48 38 7.0 12.0 0.00 0.00 0.00 69 1017.2
20180918044554 48 49 8.0 15.0 0.00 0.00 0.00 67 1017.2
20180918043654 49 73 8.0 15.0 0.00 0.00 0.00 65 1017.1
20180918042754 50 78 7.0 14.0 0.00 0.00 0.00 63 1017.1
20180918041854 49 58 6.0 11.0 0.00 0.00 0.00 64 1017.2
20180918040054 50 73 7.0 14.0 0.00 0.00 0.00 61 1017.2
20180918035154 50 60 6.0 11.0 0.00 0.00 0.00 61 1017.3
20180918034254 50 77 6.0 10.0 0.00 0.00 0.00 60 1017.3
20180918032454 51 35 5.0 10.0 0.00 0.00 0.00 61 1017.2
20180918031554 51 1 5.0 9.0 0.00 0.00 0.00 60 1017.1
20180918030654 52 1 5.0 11.0 0.00 0.00 0.00 59 1017.0
20180918025754 52 1 6.0 12.0 0.00 0.00 0.00 57 1017.0
20180918023954 53 1 5.0 11.0 0.00 0.00 0.00 57 1016.6
20180918023054 53 1 4.0 9.0 0.00 0.00 0.00 57 1016.5
20180918021254 54 1 6.0 12.0 0.00 0.00 0.00 55 1016.4
20180918020354 54 1 6.0 12.0 0.00 0.00 0.00 54 1016.2
20180918015454 54 1 6.0 11.0 0.00 0.00 0.00 54 1016.1
20180918014554 55 1 6.0 10.0 0.00 0.00 0.00 53 1016.0